createdAt,value
2023-05-12T00:00:59.006Z,1001.27
2023-05-12T00:01:59.199Z,1001.32
2023-05-12T00:02:59.405Z,1001.41
2023-05-12T00:04:01.880Z,1001.37
2023-05-12T00:04:59.790Z,1001.39
2023-05-12T00:06:02.422Z,1001.33
2023-05-12T00:07:02.188Z,1001.31
2023-05-12T00:08:00.447Z,1001.32
2023-05-12T00:09:01.580Z,1001.30
2023-05-12T00:10:00.871Z,1001.34
2023-05-12T00:11:02.471Z,1001.30
2023-05-12T00:12:02.824Z,1001.31
2023-05-12T00:13:01.653Z,1001.32
2023-05-12T00:14:02.003Z,1001.29
2023-05-12T00:15:02.241Z,1001.37
2023-05-12T00:16:02.544Z,1001.31
2023-05-12T00:17:02.963Z,1001.29
2023-05-12T00:18:05.386Z,1001.30
2023-05-12T00:19:06.122Z,1001.25
2023-05-12T00:20:04.051Z,1001.24
2023-05-12T00:23:26.126Z,1001.30
2023-05-12T00:24:26.247Z,1001.31
2023-05-12T00:25:28.919Z,1001.32
2023-05-12T00:26:28.577Z,1001.30
2023-05-12T00:27:28.777Z,1001.35
2023-05-12T00:28:28.896Z,1001.26
2023-05-12T00:29:27.046Z,1001.25
2023-05-12T00:30:27.178Z,1001.26
2023-05-12T00:31:29.429Z,1001.31
2023-05-12T00:32:27.791Z,1001.30
2023-05-12T00:33:28.158Z,1001.34
2023-05-12T00:34:28.301Z,1001.29
2023-05-12T00:35:28.485Z,1001.21
2023-05-12T00:36:32.010Z,1001.27
2023-05-12T00:37:31.703Z,1001.27
2023-05-12T00:38:28.921Z,1001.29
2023-05-12T00:39:29.086Z,1001.24
2023-05-12T00:40:29.215Z,1001.30
2023-05-12T00:41:30.318Z,1001.23
2023-05-12T00:42:29.568Z,1001.30
2023-05-12T00:43:31.706Z,1001.32
2023-05-12T00:44:30.058Z,1001.35
2023-05-12T00:45:30.235Z,1001.33
2023-05-12T00:46:32.328Z,1001.39
2023-05-12T00:47:30.676Z,1001.34
2023-05-12T00:48:32.354Z,1001.34
2023-05-12T00:49:32.961Z,1001.40
2023-05-12T00:50:33.206Z,1001.43
2023-05-12T00:51:32.980Z,1001.39
2023-05-12T00:52:31.602Z,1001.35
2023-05-12T00:53:41.404Z,1001.38
2023-05-12T00:54:31.991Z,1001.35
2023-05-12T00:55:32.312Z,1001.37
2023-05-12T00:56:32.413Z,1001.37
2023-05-12T00:57:32.565Z,1001.40
2023-05-12T00:58:34.707Z,1001.38
2023-05-12T00:59:40.573Z,1001.34
2023-05-12T01:00:34.664Z,1001.36
2023-05-12T01:01:35.310Z,1001.36
2023-05-12T01:02:33.595Z,1001.37
2023-05-12T01:03:33.981Z,1001.43
2023-05-12T01:04:36.173Z,1001.40
2023-05-12T01:05:34.404Z,1001.42
2023-05-12T01:06:35.464Z,1001.42
2023-05-12T01:07:36.645Z,1001.42
2023-05-12T01:08:34.805Z,1001.43
2023-05-12T01:09:35.560Z,1001.39
2023-05-12T01:10:36.138Z,1001.47
2023-05-12T01:11:35.299Z,1001.50
2023-05-12T01:12:38.051Z,1001.49
2023-05-12T01:13:38.214Z,1001.51
2023-05-12T01:14:35.932Z,1001.49
2023-05-12T01:15:38.126Z,1001.45
2023-05-12T01:17:36.969Z,1001.52
2023-05-12T01:18:40.370Z,1001.51
2023-05-12T01:19:37.112Z,1001.51
2023-05-12T01:20:37.233Z,1001.53
2023-05-12T01:21:37.472Z,1001.50
2023-05-12T01:22:39.552Z,1001.50
2023-05-12T01:23:37.889Z,1001.56
2023-05-12T01:24:38.487Z,1001.54
2023-05-12T01:25:40.157Z,1001.59
2023-05-12T01:26:39.410Z,1001.57
2023-05-12T01:27:38.557Z,1001.59
2023-05-12T01:28:38.805Z,1001.57
2023-05-12T01:29:41.398Z,1001.58
2023-05-12T01:30:39.211Z,1001.60
2023-05-12T01:31:39.485Z,1001.60
2023-05-12T01:32:40.808Z,1001.60
2023-05-12T01:33:42.233Z,1001.58
2023-05-12T01:34:40.384Z,1001.56
2023-05-12T01:35:40.540Z,1001.56
2023-05-12T01:36:41.950Z,1001.58
2023-05-12T01:37:42.078Z,1001.61
2023-05-12T01:38:41.208Z,1001.60
2023-05-12T01:39:41.318Z,1001.63
2023-05-12T01:40:42.540Z,1001.65
2023-05-12T01:41:42.632Z,1001.66
2023-05-12T01:42:41.959Z,1001.62
2023-05-12T01:43:42.244Z,1001.63
2023-05-12T01:44:44.359Z,1001.62
2023-05-12T01:45:44.519Z,1001.65
2023-05-12T01:46:43.672Z,1001.62
2023-05-12T01:47:43.913Z,1001.67
2023-05-12T01:48:45.728Z,1001.64
2023-05-12T01:49:45.378Z,1001.61
2023-05-12T01:50:43.546Z,1001.60
2023-05-12T01:51:43.869Z,1001.54
2023-05-12T01:52:44.533Z,1001.56
2023-05-12T01:53:45.670Z,1001.53
2023-05-12T01:54:44.330Z,1001.58
2023-05-12T01:55:44.480Z,1001.59
2023-05-12T01:56:45.551Z,1001.58
2023-05-12T01:57:46.890Z,1001.49
2023-05-12T01:58:45.024Z,1001.47
2023-05-12T01:59:46.164Z,1001.53
2023-05-12T02:00:45.352Z,1001.55
2023-05-12T02:01:45.679Z,1001.49
2023-05-12T02:02:45.939Z,1001.54
2023-05-12T02:03:48.152Z,1001.58
2023-05-12T02:04:46.324Z,1001.59
2023-05-12T02:05:48.472Z,1001.62
2023-05-12T02:06:47.538Z,1001.61
2023-05-12T02:07:46.957Z,1001.57
2023-05-12T02:08:47.084Z,1001.60
2023-05-12T02:09:48.044Z,1001.54
2023-05-12T02:10:47.694Z,1001.59
2023-05-12T02:11:48.891Z,1001.57
2023-05-12T02:12:50.070Z,1001.55
2023-05-12T02:13:49.651Z,1001.54
2023-05-12T02:14:48.379Z,1001.55
2023-05-12T02:15:50.896Z,1001.60
2023-05-12T02:16:49.611Z,1001.58
2023-05-12T02:17:48.804Z,1001.58
2023-05-12T02:18:50.998Z,1001.66
2023-05-12T02:19:51.192Z,1001.59
2023-05-12T02:20:50.378Z,1001.59
2023-05-12T02:21:50.488Z,1001.55
2023-05-12T02:22:49.680Z,1001.55
2023-05-12T02:23:50.858Z,1001.55
2023-05-12T02:24:51.128Z,1001.54
2023-05-12T02:25:50.348Z,1001.57
2023-05-12T02:26:52.429Z,1001.59
2023-05-12T02:27:52.600Z,1001.61
2023-05-12T02:28:50.783Z,1001.60
2023-05-12T02:29:52.097Z,1001.57
2023-05-12T02:30:51.240Z,1001.59
2023-05-12T02:31:53.527Z,1001.60
2023-05-12T02:32:51.720Z,1001.57
2023-05-12T02:33:54.552Z,1001.60
2023-05-12T02:34:52.835Z,1001.61
2023-05-12T02:35:52.512Z,1001.59
2023-05-12T02:36:52.713Z,1001.58
2023-05-12T02:37:52.857Z,1001.59
2023-05-12T02:38:53.067Z,1001.58
2023-05-12T02:39:53.272Z,1001.60
2023-05-12T02:40:53.429Z,1001.64
2023-05-12T02:41:55.623Z,1001.68
2023-05-12T02:42:54.768Z,1001.66
2023-05-12T02:43:54.844Z,1001.61
2023-05-12T02:44:53.984Z,1001.56
2023-05-12T02:45:55.300Z,1001.54
2023-05-12T02:46:54.470Z,1001.61
2023-05-12T02:47:56.131Z,1001.57
2023-05-12T02:48:54.765Z,1001.61
2023-05-12T02:49:54.987Z,1001.65
2023-05-12T02:50:55.124Z,1001.55
2023-05-12T02:51:57.530Z,1001.61
2023-05-12T02:52:56.600Z,1001.66
2023-05-12T02:53:56.776Z,1001.64
2023-05-12T02:54:55.950Z,1001.60
2023-05-12T02:55:56.082Z,1001.55
2023-05-12T02:56:56.256Z,1001.54
2023-05-12T02:57:56.418Z,1001.51
2023-05-12T02:58:56.615Z,1001.54
2023-05-12T02:59:59.307Z,1001.53
2023-05-12T03:01:09.476Z,1001.52
2023-05-12T03:02:02.528Z,1001.51
2023-05-12T03:02:57.619Z,1001.49
2023-05-12T03:03:58.778Z,1001.55
2023-05-12T03:04:58.043Z,1001.53
2023-05-12T03:05:58.185Z,1001.56
2023-05-12T03:06:59.274Z,1001.60
2023-05-12T03:07:58.468Z,1001.58
2023-05-12T03:08:58.808Z,1001.55
2023-05-12T03:09:58.981Z,1001.60
2023-05-12T03:10:59.135Z,1001.57
2023-05-12T03:12:01.230Z,1001.59
2023-05-12T03:12:59.382Z,1001.59
2023-05-12T03:13:59.496Z,1001.56
2023-05-12T03:14:59.651Z,1001.60
2023-05-12T03:16:01.946Z,1001.60
2023-05-12T03:17:00.163Z,1001.63
2023-05-12T03:18:01.923Z,1001.64
2023-05-12T03:19:00.621Z,1001.65
2023-05-12T03:20:02.803Z,1001.61
2023-05-12T03:21:02.947Z,1001.65
2023-05-12T03:22:02.036Z,1001.60
2023-05-12T03:23:03.127Z,1001.60
2023-05-12T03:24:01.316Z,1001.65
2023-05-12T03:25:02.448Z,1001.68
2023-05-12T03:26:01.645Z,1001.66
2023-05-12T03:27:02.794Z,1001.66
2023-05-12T03:28:01.947Z,1001.69
2023-05-12T03:29:02.098Z,1001.69
2023-05-12T03:30:02.345Z,1001.65
2023-05-12T03:31:04.244Z,1001.65
2023-05-12T03:32:06.067Z,1001.62
2023-05-12T03:33:04.211Z,1001.68
2023-05-12T03:34:03.397Z,1001.66
2023-05-12T03:35:03.587Z,1001.73
2023-05-12T03:36:03.730Z,1001.64
2023-05-12T03:37:04.746Z,1001.58
2023-05-12T03:38:03.889Z,1001.64
2023-05-12T03:39:05.105Z,1001.63
2023-05-12T03:40:04.341Z,1001.62
2023-05-12T03:41:05.528Z,1001.69
2023-05-12T03:42:05.627Z,1001.63
2023-05-12T03:43:05.752Z,1001.62
2023-05-12T03:44:05.069Z,1001.70
2023-05-12T03:45:06.214Z,1001.70
2023-05-12T03:46:05.594Z,1001.75
2023-05-12T03:47:06.883Z,1001.71
2023-05-12T03:48:07.146Z,1001.73
2023-05-12T03:49:07.160Z,1001.70
2023-05-12T03:50:07.628Z,1001.71
2023-05-12T03:51:08.012Z,1001.68
2023-05-12T03:52:10.588Z,1001.70
2023-05-12T03:53:09.218Z,1001.68
2023-05-12T03:54:08.425Z,1001.62
2023-05-12T03:55:09.571Z,1001.64
2023-05-12T03:56:08.213Z,1001.66
2023-05-12T03:57:09.827Z,1001.64
2023-05-12T03:58:09.414Z,1001.66
2023-05-12T03:59:09.582Z,1001.68
2023-05-12T04:00:08.898Z,1001.69
2023-05-12T04:01:12.173Z,1001.68
2023-05-12T04:02:11.377Z,1001.64
2023-05-12T04:03:10.687Z,1001.64
2023-05-12T04:04:10.038Z,1001.66
2023-05-12T04:05:12.342Z,1001.64
2023-05-12T04:06:11.078Z,1001.68
2023-05-12T04:07:11.321Z,1001.69
2023-05-12T04:08:11.940Z,1001.73
2023-05-12T04:09:11.110Z,1001.76
2023-05-12T04:10:11.227Z,1001.78
2023-05-12T04:11:11.413Z,1001.83
2023-05-12T04:12:12.194Z,1001.82
2023-05-12T04:13:14.032Z,1001.76
2023-05-12T04:14:13.805Z,1001.81
2023-05-12T04:15:12.438Z,1001.78
2023-05-12T04:16:12.617Z,1001.84
2023-05-12T04:17:13.389Z,1001.87
2023-05-12T04:18:14.607Z,1001.87
2023-05-12T04:19:14.324Z,1001.85
2023-05-12T04:20:13.471Z,1001.84
2023-05-12T04:21:15.635Z,1001.84
2023-05-12T04:22:14.873Z,1001.90
2023-05-12T04:23:16.014Z,1001.90
2023-05-12T04:24:14.219Z,1001.92
2023-05-12T04:25:16.337Z,1001.89
2023-05-12T04:26:14.442Z,1001.85
2023-05-12T04:27:16.080Z,1001.83
2023-05-12T04:28:16.733Z,1001.86
2023-05-12T04:29:16.341Z,1001.90
2023-05-12T04:30:16.941Z,1001.92
2023-05-12T04:31:20.488Z,1001.96
2023-05-12T04:32:16.312Z,1001.92
2023-05-12T04:33:15.496Z,1001.95
2023-05-12T04:34:16.879Z,1001.96
2023-05-12T04:35:22.424Z,1001.97
2023-05-12T04:36:17.135Z,1001.95
2023-05-12T04:37:17.810Z,1001.97
2023-05-12T04:38:17.433Z,1001.92
2023-05-12T04:39:16.558Z,1001.89
2023-05-12T04:40:19.077Z,1001.87
2023-05-12T04:41:17.938Z,1001.90
2023-05-12T04:42:18.612Z,1001.90
2023-05-12T04:44:19.416Z,1001.91
2023-05-12T04:45:17.816Z,1001.96
2023-05-12T04:46:17.685Z,1002.01
2023-05-12T04:47:17.924Z,1002.04
2023-05-12T04:48:20.024Z,1002.06
2023-05-12T04:49:19.118Z,1002.04
2023-05-12T04:50:18.257Z,1002.05
2023-05-12T04:51:18.408Z,1002.00
2023-05-12T04:52:18.530Z,1001.95
2023-05-12T04:53:19.747Z,1001.97
2023-05-12T04:54:18.880Z,1002.01
2023-05-12T04:55:21.172Z,1002.11
2023-05-12T04:56:19.356Z,1002.19
2023-05-12T04:57:19.576Z,1002.15
2023-05-12T04:58:20.750Z,1002.20
2023-05-12T04:59:20.834Z,1002.19
2023-05-12T05:00:20.010Z,1002.20
2023-05-12T05:01:22.302Z,1002.15
2023-05-12T05:02:22.465Z,1002.15
2023-05-12T05:03:20.722Z,1002.16
2023-05-12T05:04:20.958Z,1002.06
2023-05-12T05:05:23.706Z,1002.10
2023-05-12T05:06:22.800Z,1002.16
2023-05-12T05:07:21.421Z,1002.15
2023-05-12T05:08:21.518Z,1002.13
2023-05-12T05:09:22.534Z,1002.19
2023-05-12T05:10:21.808Z,1002.12
2023-05-12T05:11:22.082Z,1002.20
2023-05-12T05:12:22.264Z,1002.19
2023-05-12T05:13:22.479Z,1002.24
2023-05-12T05:14:24.275Z,1002.20
2023-05-12T05:15:24.207Z,1002.28
2023-05-12T05:16:23.083Z,1002.28
2023-05-12T05:17:24.423Z,1002.27
2023-05-12T05:18:24.359Z,1002.31
2023-05-12T05:19:35.604Z,1002.34
2023-05-12T05:20:27.858Z,1002.40
2023-05-12T05:21:26.047Z,1002.38
2023-05-12T05:22:24.624Z,1002.43
2023-05-12T05:23:25.369Z,1002.43
2023-05-12T05:24:24.605Z,1002.41
2023-05-12T05:25:26.007Z,1002.46
2023-05-12T05:26:25.465Z,1002.43
2023-05-12T05:27:26.722Z,1002.46
2023-05-12T05:28:27.036Z,1002.43
2023-05-12T05:29:26.424Z,1002.49
2023-05-12T05:30:28.632Z,1002.44
2023-05-12T05:31:29.631Z,1002.41
2023-05-12T05:32:28.371Z,1002.46
2023-05-12T05:33:27.916Z,1002.50
2023-05-12T05:34:28.056Z,1002.51
2023-05-12T05:35:27.812Z,1002.49
2023-05-12T05:36:31.663Z,1002.53
2023-05-12T05:37:29.183Z,1002.54
2023-05-12T05:38:45.321Z,1002.52
2023-05-12T05:39:30.057Z,1002.54
2023-05-12T05:40:38.585Z,1002.53
2023-05-12T05:41:31.651Z,1002.53
2023-05-12T05:42:29.431Z,1002.51
2023-05-12T05:43:30.121Z,1002.53
2023-05-12T05:44:30.720Z,1002.52
2023-05-12T05:45:30.598Z,1002.54
2023-05-12T05:46:32.913Z,1002.58
2023-05-12T05:47:36.360Z,1002.52
2023-05-12T05:48:32.823Z,1002.57
2023-05-12T05:49:32.876Z,1002.60
2023-05-12T05:50:32.489Z,1002.55
2023-05-12T05:51:32.720Z,1002.56
2023-05-12T05:52:32.587Z,1002.61
2023-05-12T05:53:34.180Z,1002.63
2023-05-12T05:54:34.077Z,1002.68
2023-05-12T05:55:35.283Z,1002.65
2023-05-12T05:56:33.008Z,1002.67
2023-05-12T05:57:33.486Z,1002.71
2023-05-12T05:58:33.649Z,1002.73
2023-05-12T05:59:34.552Z,1002.71
2023-05-12T06:00:33.996Z,1002.68
2023-05-12T06:01:40.531Z,1002.69
2023-05-12T06:02:35.508Z,1002.72
2023-05-12T06:03:36.684Z,1002.67
2023-05-12T06:04:41.403Z,1002.65
2023-05-12T06:05:35.611Z,1002.72
2023-05-12T06:06:35.418Z,1002.66
2023-05-12T06:07:35.614Z,1002.69
2023-05-12T06:08:36.291Z,1002.71
2023-05-12T06:09:36.164Z,1002.71
2023-05-12T06:10:38.178Z,1002.73
2023-05-12T06:11:37.119Z,1002.71
2023-05-12T06:12:36.927Z,1002.73
2023-05-12T06:13:40.020Z,1002.76
2023-05-12T06:14:39.711Z,1002.75
2023-05-12T06:15:38.801Z,1002.79
2023-05-12T06:16:41.234Z,1002.79
2023-05-12T06:17:39.958Z,1002.76
2023-05-12T06:18:39.093Z,1002.77
2023-05-12T06:19:39.111Z,1002.77
2023-05-12T06:20:46.639Z,1002.80
2023-05-12T06:21:52.433Z,1002.76
2023-05-12T06:22:42.695Z,1002.80
2023-05-12T06:23:41.422Z,1002.82
2023-05-12T06:24:42.295Z,1002.81
2023-05-12T06:25:40.246Z,1002.79
2023-05-12T06:26:42.129Z,1002.76
2023-05-12T06:27:41.693Z,1002.86
2023-05-12T06:28:49.145Z,1002.83
2023-05-12T06:29:43.719Z,1002.84
2023-05-12T06:30:42.039Z,1002.85
2023-05-12T06:31:46.430Z,1002.83
2023-05-12T06:33:47.280Z,1002.87
2023-05-12T06:34:43.675Z,1002.87
2023-05-12T06:35:44.916Z,1002.83
2023-05-12T06:36:47.555Z,1002.84
2023-05-12T06:37:47.771Z,1002.82
2023-05-12T06:38:48.120Z,1002.85
2023-05-12T06:39:51.574Z,1002.86
2023-05-12T06:41:57.700Z,1002.86
2023-05-12T06:42:59.784Z,1002.90
2023-05-12T06:44:08.805Z,1002.85
2023-05-12T06:44:54.504Z,1002.83
2023-05-12T06:45:47.793Z,1002.84
2023-05-12T06:46:46.230Z,1002.86
2023-05-12T06:47:47.527Z,1002.93
2023-05-12T06:48:48.998Z,1002.85
2023-05-12T06:50:05.237Z,1002.82
2023-05-12T06:51:00.388Z,1002.84
2023-05-12T06:51:51.260Z,1002.85
2023-05-12T06:52:55.045Z,1002.90
2023-05-12T06:54:07.485Z,1002.87
2023-05-12T06:54:52.901Z,1002.93
2023-05-12T06:55:58.034Z,1002.87
2023-05-12T06:56:47.809Z,1002.91
2023-05-12T06:57:48.816Z,1002.91
2023-05-12T06:58:50.355Z,1002.93
2023-05-12T07:00:01.850Z,1002.90
2023-05-12T07:01:55.861Z,1002.88
2023-05-12T07:03:20.038Z,1002.84
2023-05-12T07:04:00.477Z,1002.85
2023-05-12T07:04:54.109Z,1002.85
2023-05-12T07:05:54.248Z,1002.83
2023-05-12T07:07:07.791Z,1002.83
2023-05-12T07:07:56.693Z,1002.82
2023-05-12T07:09:02.369Z,1002.78
2023-05-12T07:10:58.193Z,1002.81
2023-05-12T07:12:56.773Z,1002.81
2023-05-12T07:13:59.576Z,1002.80
2023-05-12T07:14:58.204Z,1002.77
2023-05-12T07:16:18.476Z,1002.76
2023-05-12T07:16:57.043Z,1002.80
2023-05-12T07:17:58.221Z,1002.79
2023-05-12T07:20:09.151Z,1002.72
2023-05-12T07:21:00.480Z,1002.66
2023-05-12T07:21:54.391Z,1002.67
2023-05-12T07:23:01.999Z,1002.67
2023-05-12T07:23:54.356Z,1002.64
2023-05-12T07:25:12.118Z,1002.70
2023-05-12T07:28:10.908Z,1002.69
2023-05-12T07:31:01.316Z,1002.65
2023-05-12T07:31:58.521Z,1002.68
2023-05-12T07:32:57.771Z,1002.66
2023-05-12T07:34:15.440Z,1002.69
2023-05-12T07:35:04.682Z,1002.71
2023-05-12T07:37:22.131Z,1002.71
2023-05-12T07:38:24.476Z,1002.71
2023-05-12T07:39:21.165Z,1002.69
2023-05-12T07:40:21.184Z,1002.74
2023-05-12T07:41:29.382Z,1002.66
2023-05-12T07:42:23.612Z,1002.71
2023-05-12T07:43:51.098Z,1002.70
2023-05-12T07:44:23.213Z,1002.69
2023-05-12T07:45:34.184Z,1002.58
2023-05-12T07:46:23.504Z,1002.70
2023-05-12T07:47:28.992Z,1002.66
2023-05-12T07:48:25.969Z,1002.65
2023-05-12T07:49:34.873Z,1002.64
2023-05-12T07:50:50.221Z,1002.58
2023-05-12T07:51:19.201Z,1002.61
2023-05-12T07:52:28.073Z,1002.60
2023-05-12T07:56:29.169Z,1002.54
2023-05-12T07:57:34.043Z,1002.61
2023-05-12T07:58:18.668Z,1002.53
2023-05-12T08:00:27.289Z,1002.51
2023-05-12T08:01:22.973Z,1002.52
2023-05-12T08:02:25.080Z,1002.55
2023-05-12T08:04:29.672Z,1002.58
2023-05-12T08:05:25.197Z,1002.52
2023-05-12T08:06:33.361Z,1002.52
2023-05-12T08:07:26.288Z,1002.58
2023-05-12T08:09:22.315Z,1002.58
2023-05-12T08:10:27.187Z,1002.54
2023-05-12T08:11:28.786Z,1002.54
2023-05-12T08:12:27.747Z,1002.58
2023-05-12T08:13:28.374Z,1002.58
2023-05-12T08:14:20.486Z,1002.59
2023-05-12T08:17:28.479Z,1002.61
2023-05-12T08:19:45.635Z,1002.58
2023-05-12T08:20:23.723Z,1002.63
2023-05-12T08:21:33.998Z,1002.63
2023-05-12T08:22:26.664Z,1002.61
2023-05-12T08:23:30.847Z,1002.61
2023-05-12T08:24:25.495Z,1002.59
2023-05-12T08:25:42.454Z,1002.59
2023-05-12T08:26:31.391Z,1002.62
2023-05-12T08:27:33.433Z,1002.68
2023-05-12T08:28:33.244Z,1002.59
2023-05-12T08:29:25.085Z,1002.64
2023-05-12T08:30:27.609Z,1002.66
2023-05-12T08:31:51.050Z,1002.65
2023-05-12T08:32:33.266Z,1002.63
2023-05-12T08:33:45.043Z,1002.62
2023-05-12T08:34:34.266Z,1002.70
2023-05-12T08:35:33.085Z,1002.62
2023-05-12T08:36:45.195Z,1002.67
2023-05-12T08:40:32.813Z,1002.60
2023-05-12T08:41:36.901Z,1002.64
2023-05-12T08:42:29.716Z,1002.56
2023-05-12T08:43:31.805Z,1002.63
2023-05-12T08:44:40.058Z,1002.62
2023-05-12T08:45:43.286Z,1002.61
2023-05-12T08:46:35.289Z,1002.61
2023-05-12T08:47:30.678Z,1002.60
2023-05-12T08:48:49.419Z,1002.62
2023-05-12T08:49:46.547Z,1002.61
2023-05-12T08:50:37.294Z,1002.61
2023-05-12T08:51:43.478Z,1002.62
2023-05-12T08:52:31.264Z,1002.61
2023-05-12T08:53:47.462Z,1002.55
2023-05-12T08:54:55.434Z,1002.52
2023-05-12T08:57:08.131Z,1002.55
2023-05-12T08:59:54.892Z,1002.57
2023-05-12T09:01:02.356Z,1002.53
2023-05-12T09:02:13.624Z,1002.51
2023-05-12T09:03:04.455Z,1002.50
2023-05-12T09:07:20.209Z,1002.51
2023-05-12T09:08:05.946Z,1002.49
2023-05-12T09:11:51.396Z,1002.48
2023-05-12T09:13:03.362Z,1002.46
2023-05-12T09:15:00.011Z,1002.49
2023-05-12T09:16:53.047Z,1002.41
2023-05-12T09:19:15.724Z,1002.47
2023-05-12T09:20:30.327Z,1002.47
2023-05-12T09:21:01.931Z,1002.45
2023-05-12T09:24:31.597Z,1002.44
2023-05-12T09:26:56.676Z,1002.43
2023-05-12T09:28:39.515Z,1002.40
2023-05-12T09:30:59.989Z,1002.38
2023-05-12T09:32:05.996Z,1002.39
2023-05-12T09:33:11.872Z,1002.43
2023-05-12T09:35:15.080Z,1002.37
2023-05-12T09:36:23.663Z,1002.38
2023-05-12T09:37:27.340Z,1002.38
2023-05-12T09:39:42.470Z,1002.38
2023-05-12T09:41:04.296Z,1002.31
2023-05-12T09:42:09.880Z,1002.31
2023-05-12T09:45:08.156Z,1002.28
2023-05-12T09:46:15.363Z,1002.30
2023-05-12T09:47:02.815Z,1002.32
2023-05-12T09:48:02.489Z,1002.31
2023-05-12T09:49:16.440Z,1002.30
2023-05-12T09:50:09.599Z,1002.30
2023-05-12T09:51:03.759Z,1002.26
2023-05-12T09:56:24.259Z,1002.25
2023-05-12T09:57:13.331Z,1002.25
2023-05-12T09:58:16.175Z,1002.21
2023-05-12T09:59:12.430Z,1002.31
2023-05-12T10:00:30.266Z,1002.27
2023-05-12T10:01:20.869Z,1002.29
2023-05-12T10:02:22.589Z,1002.24
2023-05-12T10:04:36.248Z,1002.18
2023-05-12T10:05:40.341Z,1002.21
2023-05-12T10:07:23.021Z,1002.23
2023-05-12T10:10:12.171Z,1002.28
2023-05-12T10:11:07.734Z,1002.21
2023-05-12T10:12:23.520Z,1002.14
2023-05-12T10:13:09.117Z,1002.17
2023-05-12T10:14:21.684Z,1002.19
2023-05-12T10:15:10.456Z,1002.23
2023-05-12T10:16:07.803Z,1002.28
2023-05-12T10:17:21.780Z,1002.24
2023-05-12T10:18:39.682Z,1002.32
2023-05-12T10:19:10.544Z,1002.26
2023-05-12T10:20:19.822Z,1002.26
2023-05-12T10:21:15.314Z,1002.24
2023-05-12T10:22:07.371Z,1002.22
2023-05-12T10:23:18.426Z,1002.30
2023-05-12T10:24:12.896Z,1002.25
2023-05-12T10:25:17.495Z,1002.28
2023-05-12T10:26:11.578Z,1002.22
2023-05-12T10:27:15.247Z,1002.28
2023-05-12T10:28:14.050Z,1002.29
2023-05-12T10:29:19.877Z,1002.25
2023-05-12T10:30:30.499Z,1002.30
2023-05-12T10:31:20.089Z,1002.21
2023-05-12T10:32:17.312Z,1002.24
2023-05-12T10:33:17.725Z,1002.26
2023-05-12T10:34:14.134Z,1002.30
2023-05-12T10:35:11.105Z,1002.29
2023-05-12T10:36:26.768Z,1002.32
2023-05-12T10:37:13.953Z,1002.32
2023-05-12T10:38:20.419Z,1002.30
2023-05-12T10:39:14.827Z,1002.26
2023-05-12T10:40:09.696Z,1002.34
2023-05-12T10:41:19.356Z,1002.29
2023-05-12T10:42:14.982Z,1002.34
2023-05-12T10:43:16.428Z,1002.28
2023-05-12T10:44:15.024Z,1002.28
2023-05-12T10:45:12.105Z,1002.32
2023-05-12T10:46:19.301Z,1002.30
2023-05-12T10:47:14.630Z,1002.27
2023-05-12T10:49:14.431Z,1002.27
2023-05-12T10:50:18.587Z,1002.27
2023-05-12T10:51:14.729Z,1002.30
2023-05-12T10:52:27.017Z,1002.32
2023-05-12T10:53:22.304Z,1002.22
2023-05-12T10:54:24.509Z,1002.29
2023-05-12T10:56:36.421Z,1002.26
2023-05-12T10:57:26.812Z,1002.23
2023-05-12T10:58:22.752Z,1002.21
2023-05-12T10:59:25.445Z,1002.24
2023-05-12T11:00:14.616Z,1002.14
2023-05-12T11:01:25.216Z,1002.18
2023-05-12T11:02:14.615Z,1002.20
2023-05-12T11:03:15.151Z,1002.19
2023-05-12T11:04:16.977Z,1002.24
2023-05-12T11:05:33.853Z,1002.19
2023-05-12T11:06:15.746Z,1002.30
2023-05-12T11:07:16.344Z,1002.19
2023-05-12T11:08:17.695Z,1002.21
2023-05-12T11:09:15.440Z,1002.22
2023-05-12T11:10:18.241Z,1002.18
2023-05-12T11:11:15.923Z,1002.11
2023-05-12T11:12:15.052Z,1002.07
2023-05-12T11:13:18.367Z,1002.15
2023-05-12T11:14:15.433Z,1002.12
2023-05-12T11:15:18.040Z,1002.10
2023-05-12T11:16:15.503Z,1002.08
2023-05-12T11:17:15.620Z,1002.07
2023-05-12T11:18:15.553Z,1002.06
2023-05-12T11:19:15.855Z,1002.11
2023-05-12T11:20:15.975Z,1002.10
2023-05-12T11:21:17.256Z,1002.08
2023-05-12T11:22:16.478Z,1002.08
2023-05-12T11:23:17.492Z,1002.07
2023-05-12T11:24:23.108Z,1002.05
2023-05-12T11:25:19.190Z,1002.04
2023-05-12T11:26:16.818Z,1002.08
2023-05-12T11:27:18.086Z,1001.99
2023-05-12T11:28:17.657Z,1002.10
2023-05-12T11:29:18.439Z,1002.16
2023-05-12T11:30:17.976Z,1002.11
2023-05-12T11:31:19.291Z,1002.19
2023-05-12T11:32:18.306Z,1002.21
2023-05-12T11:33:18.520Z,1002.25
2023-05-12T11:34:18.591Z,1002.22
2023-05-12T11:35:32.441Z,1002.27
2023-05-12T11:36:21.017Z,1002.31
2023-05-12T11:37:19.088Z,1002.34
2023-05-12T11:38:19.003Z,1002.31
2023-05-12T11:39:19.555Z,1002.30
2023-05-12T11:40:20.827Z,1002.32
2023-05-12T11:41:20.044Z,1002.27
2023-05-12T11:42:20.690Z,1002.36
2023-05-12T11:43:20.875Z,1002.30
2023-05-12T11:44:19.864Z,1002.30
2023-05-12T11:45:23.036Z,1002.33
2023-05-12T11:46:21.029Z,1002.32
2023-05-12T11:47:20.344Z,1002.33
2023-05-12T11:48:21.744Z,1002.30
2023-05-12T11:49:20.439Z,1002.35
2023-05-12T11:50:24.089Z,1002.28
2023-05-12T11:51:22.359Z,1002.39
2023-05-12T11:52:21.124Z,1002.33
2023-05-12T11:53:23.258Z,1002.34
2023-05-12T11:54:21.404Z,1002.34
2023-05-12T11:55:30.996Z,1002.33
2023-05-12T11:56:24.390Z,1002.35
2023-05-12T11:57:22.046Z,1002.36
2023-05-12T11:58:23.008Z,1002.37
2023-05-12T11:59:22.767Z,1002.38
2023-05-12T12:00:24.387Z,1002.33
2023-05-12T12:01:22.553Z,1002.25
2023-05-12T12:02:25.387Z,1002.36
2023-05-12T12:03:25.327Z,1002.34
2023-05-12T12:04:23.989Z,1002.36
2023-05-12T12:05:34.442Z,1002.40
2023-05-12T12:06:35.120Z,1002.37
2023-05-12T12:07:23.325Z,1002.36
2023-05-12T12:08:23.442Z,1002.40
2023-05-12T12:09:23.587Z,1002.38
2023-05-12T12:10:24.625Z,1002.40
2023-05-12T12:11:23.703Z,1002.43
2023-05-12T12:12:25.109Z,1002.41
2023-05-12T12:13:24.184Z,1002.42
2023-05-12T12:14:28.275Z,1002.52
2023-05-12T12:15:25.948Z,1002.55
2023-05-12T12:16:24.703Z,1002.62
2023-05-12T12:17:24.850Z,1002.59
2023-05-12T12:18:25.044Z,1002.55
2023-05-12T12:19:25.590Z,1002.53
2023-05-12T12:20:27.128Z,1002.52
2023-05-12T12:21:29.647Z,1002.54
2023-05-12T12:22:29.250Z,1002.49
2023-05-12T12:23:26.935Z,1002.54
2023-05-12T12:24:26.913Z,1002.55
2023-05-12T12:25:32.557Z,1002.52
2023-05-12T12:26:27.681Z,1002.56
2023-05-12T12:27:27.916Z,1002.57
2023-05-12T12:28:27.002Z,1002.50
2023-05-12T12:29:27.222Z,1002.58
2023-05-12T12:30:30.957Z,1002.59
2023-05-12T12:31:27.654Z,1002.60
2023-05-12T12:32:28.658Z,1002.62
2023-05-12T12:33:27.802Z,1002.70
2023-05-12T12:34:29.908Z,1002.66
2023-05-12T12:35:33.620Z,1002.66
2023-05-12T12:36:30.187Z,1002.63
2023-05-12T12:37:29.312Z,1002.62
2023-05-12T12:38:29.596Z,1002.64
2023-05-12T12:39:28.740Z,1002.56
2023-05-12T12:40:28.899Z,1002.59
2023-05-12T12:41:29.283Z,1002.59
2023-05-12T12:42:29.361Z,1002.60
2023-05-12T12:43:31.422Z,1002.53
2023-05-12T12:44:30.969Z,1002.62
2023-05-12T12:45:31.579Z,1002.55
2023-05-12T12:46:29.958Z,1002.59
2023-05-12T12:47:33.348Z,1002.52
2023-05-12T12:48:32.464Z,1002.53
2023-05-12T12:49:31.578Z,1002.55
2023-05-12T12:50:30.729Z,1002.52
2023-05-12T12:51:44.472Z,1002.53
2023-05-12T12:52:31.128Z,1002.52
2023-05-12T12:53:32.067Z,1002.58
2023-05-12T12:54:31.787Z,1002.54
2023-05-12T12:55:37.010Z,1002.55
2023-05-12T12:56:31.870Z,1002.50
2023-05-12T12:57:34.092Z,1002.48
2023-05-12T12:58:32.308Z,1002.51
2023-05-12T12:59:33.227Z,1002.42
2023-05-12T13:00:33.488Z,1002.49
2023-05-12T13:01:34.171Z,1002.49
2023-05-12T13:02:32.955Z,1002.50
2023-05-12T13:03:35.111Z,1002.51
2023-05-12T13:04:33.372Z,1002.49
2023-05-12T13:05:34.460Z,1002.50
2023-05-12T13:06:33.583Z,1002.50
2023-05-12T13:07:34.541Z,1002.51
2023-05-12T13:08:34.111Z,1002.47
2023-05-12T13:09:34.210Z,1002.43